Change the Weather History Date:

Monday, October 3, 2011

  Actual Average (KDVL) Record (KDVL)
Temperature  
Mean Temperature 56 °F -  
Max Temperature 68 °F 60 °F 80 °F (1963)
Min Temperature 44 °F 38 °F 21 °F (1989)
Degree Days  
Heating Degree Days 9    
Growing Degree Days 6 (Base 50)    
Moisture  
Dew Point 48 °F    
Average Humidity 73    
Maximum Humidity 93    
Minimum Humidity 52    
Precipitation  
Precipitation 0.00 in - - ()
Sea Level Pressure  
Sea Level Pressure 29.99 in    
Wind  
Wind Speed 8 mph (NE)    
Max Wind Speed 17 mph    
Max Gust Speed 21 mph    
Visibility 10 miles    
Events      
Averages and records for this station are not official NWS values.
T = Trace of Precipitation, MM = Missing Value Source: NWS Daily Summary

Daily Weather History Graph

Daily Weather History Graph

Search for Another Location

Airport or City:

Trip Planner

Search our weather history database for the weather conditions in past years. The results will help you decide how hot, cold, wet, or windy it might be!

Date:

Astronomy

Oct. 03, 2011 Rise Set
Actual Time 7:38 AM CDT 7:12 PM CDT
Civil Twilight 7:07 AM CDT 7:43 PM CDT
Nautical Twilight 6:31 AM CDT 8:19 PM CDT
Astronomical Twilight 5:54 AM CDT 8:56 PM CDT
Moon 3:03 PM CDT (10/3) 11:52 PM CDT (10/3)
Length of Visible Light 12h 35m
Length of Day
11h 33m
Waxing Crescent, 45% of the Moon is Illuminated
Oct 3
Waxing Crescent
Oct 3
First Quarter
Oct 11
Full
Oct 19
Last Quarter
Oct 26
New

Hourly Weather History & Observations

Time (CDT) Temp. Windchill Dew Point Humidity Pressure Visibility Wind Dir Wind Speed Gust Speed Precip Events Conditions
12:35 AM 51.8 °F - 46.4 °F 82% 29.94 in 10.0 mi ESE 5.8 mph - N/A   Clear
12:55 AM 53.6 °F - 46.4 °F 77% 29.94 in 10.0 mi ESE 6.9 mph - N/A   Clear
1:15 AM 50.0 °F - 46.4 °F 87% 29.94 in 10.0 mi ENE 3.5 mph - N/A   Clear
1:35 AM 50.0 °F - 46.4 °F 87% 29.93 in 10.0 mi ESE 6.9 mph - N/A   Clear
1:55 AM 50.0 °F - 46.4 °F 87% 29.93 in 10.0 mi ESE 8.1 mph - N/A   Clear
2:15 AM 50.0 °F - 44.6 °F 82% 29.93 in 10.0 mi SE 8.1 mph - N/A   Clear
2:55 AM 50.0 °F - 44.6 °F 82% 29.93 in 10.0 mi SE 9.2 mph - N/A   Clear
3:15 AM 48.2 °F - 44.6 °F 87% 29.93 in 10.0 mi SE 8.1 mph - N/A   Clear
3:55 AM 48.2 °F - 44.6 °F 87% 29.93 in 10.0 mi ESE 5.8 mph - N/A   Clear
4:15 AM 48.2 °F - 44.6 °F 87% 29.93 in 10.0 mi ESE 5.8 mph - N/A   Clear
4:35 AM 48.2 °F - 44.6 °F 87% 29.93 in 10.0 mi ESE 8.1 mph - N/A   Clear
4:55 AM 48.2 °F - 44.6 °F 87% 29.94 in 10.0 mi ESE 4.6 mph - N/A   Clear
5:15 AM 46.4 °F 44.3 °F 44.6 °F 93% 29.96 in 10.0 mi NNW 4.6 mph - N/A   Clear
5:35 AM 46.4 °F 42.9 °F 44.6 °F 93% 29.96 in 10.0 mi NNE 6.9 mph - N/A   Clear
5:55 AM 46.4 °F 45.2 °F 42.8 °F 87% 29.96 in 10.0 mi ENE 3.5 mph - N/A   Clear
6:15 AM 46.4 °F 44.3 °F 42.8 °F 87% 29.96 in 10.0 mi East 4.6 mph - N/A   Clear
6:35 AM 44.6 °F 39.7 °F 42.8 °F 93% 29.95 in 10.0 mi ESE 9.2 mph - N/A   Clear
6:55 AM 46.4 °F 42.9 °F 44.6 °F 93% 29.95 in 10.0 mi ESE 6.9 mph - N/A   Clear
7:15 AM 48.2 °F - 44.6 °F 87% 29.96 in 10.0 mi ESE 5.8 mph - N/A   Clear
7:35 AM 48.2 °F - 44.6 °F 87% 29.98 in 10.0 mi Calm Calm - N/A   Clear
7:55 AM 46.4 °F 44.3 °F 44.6 °F 93% 29.98 in 10.0 mi North 4.6 mph - N/A   Clear
8:15 AM 46.4 °F 44.3 °F 44.6 °F 93% 29.99 in 10.0 mi NNE 4.6 mph - N/A   Clear
8:35 AM 48.2 °F - 46.4 °F 93% 30.00 in 10.0 mi North 6.9 mph - N/A   Clear
8:55 AM 51.8 °F - 46.4 °F 82% 30.00 in 10.0 mi NNE 3.5 mph - N/A   Clear
9:15 AM 53.6 °F - 48.2 °F 82% 29.98 in 10.0 mi ESE 5.8 mph - N/A   Clear
9:35 AM 55.4 °F - 48.2 °F 77% 29.98 in 10.0 mi East 4.6 mph - N/A   Clear
9:55 AM 55.4 °F - 48.2 °F 77% 29.99 in 10.0 mi ENE 4.6 mph - N/A   Clear
10:35 AM 59.0 °F - 48.2 °F 67% 30.01 in 10.0 mi North 5.8 mph - N/A   Clear
10:55 AM 60.8 °F - 48.2 °F 63% 30.01 in 10.0 mi NNW 5.8 mph - N/A   Clear
11:15 AM 62.6 °F - 48.2 °F 59% 30.02 in 10.0 mi North 6.9 mph - N/A   Clear
11:35 AM 64.4 °F - 48.2 °F 56% 30.02 in 10.0 mi North 11.5 mph 16.1 mph N/A   Clear
11:55 AM 64.4 °F - 50.0 °F 59% 30.01 in 10.0 mi North 13.8 mph - N/A   Clear
12:15 PM 62.6 °F - 50.0 °F 63% 30.01 in 10.0 mi NNE 13.8 mph - N/A   Clear
12:35 PM 62.6 °F - 50.0 °F 63% 30.01 in 10.0 mi NNE 13.8 mph - N/A   Clear
12:55 PM 64.4 °F - 50.0 °F 59% 30.02 in 10.0 mi North 17.3 mph - N/A   Clear
1:15 PM 64.4 °F - 48.2 °F 56% 30.01 in 10.0 mi NE 13.8 mph 20.7 mph N/A   Clear
1:35 PM 66.2 °F - 50.0 °F 56% 30.02 in 10.0 mi NNE 16.1 mph - N/A   Clear
1:55 PM 68.0 °F - 50.0 °F 52% 30.01 in 10.0 mi NNE 16.1 mph - N/A   Clear
2:15 PM 68.0 °F - 50.0 °F 52% 30.01 in 10.0 mi NE 11.5 mph - N/A   Clear
2:35 PM 68.0 °F - 50.0 °F 52% 30.00 in 10.0 mi NNE 13.8 mph - N/A   Clear
3:15 PM 68.0 °F - 50.0 °F 52% 29.99 in 10.0 mi NE 10.4 mph - N/A   Clear
3:35 PM 68.0 °F - 50.0 °F 52% 29.99 in 10.0 mi NE 11.5 mph - N/A   Clear
3:55 PM 68.0 °F - 50.0 °F 52% 29.99 in 10.0 mi NE 11.5 mph - N/A   Clear
4:15 PM 68.0 °F - 50.0 °F 52% 30.00 in 10.0 mi NNE 10.4 mph 17.3 mph N/A   Clear
4:35 PM 68.0 °F - 50.0 °F 52% 30.01 in 10.0 mi NNE 11.5 mph 17.3 mph N/A   Clear
5:15 PM 68.0 °F - 50.0 °F 52% 30.01 in 10.0 mi NE 12.7 mph 18.4 mph N/A   Clear
5:35 PM 68.0 °F - 50.0 °F 52% 30.01 in 10.0 mi NE 13.8 mph - N/A   Clear
5:55 PM 68.0 °F - 50.0 °F 52% 30.02 in 10.0 mi NE 11.5 mph - N/A   Clear
6:15 PM 66.2 °F - 50.0 °F 56% 30.02 in 10.0 mi ENE 10.4 mph - N/A   Clear
6:35 PM 66.2 °F - 50.0 °F 56% 30.02 in 10.0 mi NE 10.4 mph - N/A   Clear
6:55 PM 64.4 °F - 50.0 °F 59% 30.02 in 10.0 mi NE 8.1 mph - N/A   Clear
7:35 PM 60.8 °F - 50.0 °F 68% 30.03 in 10.0 mi NNE 9.2 mph - N/A   Clear
7:55 PM 57.2 °F - 50.0 °F 77% 30.03 in 10.0 mi NNE 9.2 mph - N/A   Clear
8:35 PM 57.2 °F - 50.0 °F 77% 30.02 in 10.0 mi NE 9.2 mph - N/A   Clear
8:55 PM 57.2 °F - 50.0 °F 77% 30.02 in 10.0 mi NE 10.4 mph - N/A   Clear
9:15 PM 57.2 °F - 50.0 °F 77% 30.02 in 10.0 mi NE 10.4 mph - N/A   Clear
9:35 PM 55.4 °F - 50.0 °F 82% 30.03 in 10.0 mi NE 9.2 mph - N/A   Clear
9:55 PM 55.4 °F - 50.0 °F 82% 30.03 in 10.0 mi NE 8.1 mph - N/A   Clear
10:15 PM 53.6 °F - 48.2 °F 82% 30.04 in 10.0 mi NE 9.2 mph - N/A   Clear
10:35 PM 53.6 °F - 48.2 °F 82% 30.04 in 10.0 mi NE 9.2 mph - N/A   Clear
10:55 PM 53.6 °F - 48.2 °F 82% 30.04 in 10.0 mi NE 9.2 mph - N/A   Clear
11:15 PM 53.6 °F - 48.2 °F 82% 30.03 in 10.0 mi NNE 9.2 mph - N/A   Clear
11:35 PM 53.6 °F - 48.2 °F 82% 30.03 in 10.0 mi NE 10.4 mph - N/A   Clear
11:55 PM 53.6 °F - 48.2 °F 82% 30.03 in 10.0 mi NE 9.2 mph - N/A   Clear